createdAt,value
2016-10-04T00:00:28.712Z,11.35
2016-10-04T00:01:28.759Z,11.33
2016-10-04T00:02:28.672Z,11.31
2016-10-04T00:03:28.761Z,11.35
2016-10-04T00:04:28.605Z,11.35
2016-10-04T00:05:28.723Z,11.31
2016-10-04T00:06:28.657Z,11.3
2016-10-04T00:07:28.764Z,11.18
2016-10-04T00:08:28.711Z,11.33
2016-10-04T00:09:28.724Z,11.35
2016-10-04T00:10:28.674Z,11.27
2016-10-04T00:11:28.660Z,11.38
2016-10-04T00:12:28.712Z,11.39
2016-10-04T00:13:28.630Z,11.42
2016-10-04T00:14:28.757Z,11.33
2016-10-04T00:15:28.658Z,11.34
2016-10-04T00:16:28.709Z,11.39
2016-10-04T00:17:28.769Z,11.41
2016-10-04T00:18:28.741Z,11.31
2016-10-04T00:19:28.816Z,11.28
2016-10-04T00:20:28.743Z,11.35
2016-10-04T00:21:28.721Z,11.43
2016-10-04T00:22:28.770Z,11.45
2016-10-04T00:23:28.727Z,11.35
2016-10-04T00:24:28.807Z,11.28
2016-10-04T00:25:28.659Z,11.34
2016-10-04T00:26:28.764Z,11.46
2016-10-04T00:27:28.828Z,11.41
2016-10-04T00:28:28.773Z,11.42
2016-10-04T00:29:28.757Z,11.42
2016-10-04T00:30:28.820Z,11.43
2016-10-04T00:31:28.798Z,11.45
2016-10-04T00:32:28.822Z,11.43
2016-10-04T00:33:28.797Z,11.46
2016-10-04T00:34:28.866Z,11.46
2016-10-04T00:35:28.783Z,11.48
2016-10-04T00:36:28.796Z,11.46
2016-10-04T00:37:29.025Z,11.42
2016-10-04T00:38:28.852Z,11.51
2016-10-04T00:39:28.819Z,11.49
2016-10-04T00:40:28.824Z,11.48
2016-10-04T00:41:28.822Z,11.56
2016-10-04T00:42:28.852Z,11.57
2016-10-04T00:43:28.788Z,11.59
2016-10-04T00:44:28.804Z,11.52
2016-10-04T00:45:28.811Z,11.56
2016-10-04T00:46:28.820Z,11.56
2016-10-04T00:47:28.813Z,11.52
2016-10-04T00:48:28.846Z,11.56
2016-10-04T00:49:28.846Z,11.59
2016-10-04T00:50:28.813Z,11.53
2016-10-04T00:51:28.757Z,11.48
2016-10-04T00:52:28.847Z,11.52
2016-10-04T00:53:28.902Z,11.45
2016-10-04T00:54:28.873Z,11.49
2016-10-04T00:55:28.846Z,11.57
2016-10-04T00:56:28.838Z,11.52
2016-10-04T00:57:28.779Z,11.57
2016-10-04T00:58:28.938Z,11.57
2016-10-04T00:59:28.824Z,11.53
2016-10-04T01:00:28.939Z,11.53
2016-10-04T01:01:28.915Z,11.43
2016-10-04T01:02:28.824Z,11.49
2016-10-04T01:03:28.917Z,11.6
2016-10-04T01:04:28.809Z,11.67
2016-10-04T01:05:28.941Z,11.61
2016-10-04T01:06:28.798Z,11.52
2016-10-04T01:07:28.892Z,11.51
2016-10-04T01:08:28.857Z,11.57
2016-10-04T01:09:28.955Z,11.48
2016-10-04T01:10:28.877Z,11.56
2016-10-04T01:11:28.871Z,11.51
2016-10-04T01:12:28.934Z,11.51
2016-10-04T01:13:28.863Z,11.43
2016-10-04T01:14:28.965Z,11.46
2016-10-04T01:15:28.911Z,11.48
2016-10-04T01:16:28.957Z,11.51
2016-10-04T01:17:28.853Z,11.45
2016-10-04T01:18:28.941Z,11.52
2016-10-04T01:19:28.804Z,11.52
2016-10-04T01:20:28.890Z,11.52
2016-10-04T01:21:28.908Z,11.49
2016-10-04T01:22:28.968Z,11.48
2016-10-04T01:23:28.974Z,11.48
2016-10-04T01:24:28.975Z,11.45
2016-10-04T01:25:29.004Z,11.51
2016-10-04T01:26:28.879Z,11.56
2016-10-04T01:27:28.989Z,11.51
2016-10-04T01:28:28.923Z,11.49
2016-10-04T01:29:28.928Z,11.51
2016-10-04T01:30:29.007Z,11.6
2016-10-04T01:31:28.941Z,11.59
2016-10-04T01:32:28.842Z,11.63
2016-10-04T01:33:28.933Z,11.52
2016-10-04T01:34:28.964Z,11.57
2016-10-04T01:35:28.892Z,11.61
2016-10-04T01:36:28.858Z,11.6
2016-10-04T01:37:28.853Z,11.6
2016-10-04T01:38:28.978Z,11.61
2016-10-04T01:39:28.995Z,11.6
2016-10-04T01:40:28.981Z,11.64
2016-10-04T01:41:28.999Z,11.64
2016-10-04T01:42:29.024Z,11.64
2016-10-04T01:43:28.992Z,11.71
2016-10-04T01:44:29.026Z,11.64
2016-10-04T01:45:29.036Z,11.57
2016-10-04T01:46:29.074Z,11.64
2016-10-04T01:47:29.050Z,11.71
2016-10-04T01:48:28.931Z,11.68
2016-10-04T01:49:28.984Z,11.66
2016-10-04T01:50:29.059Z,11.73
2016-10-04T01:51:29.035Z,11.68
2016-10-04T01:52:28.958Z,11.63
2016-10-04T01:53:28.950Z,11.7
2016-10-04T01:54:29.009Z,11.67
2016-10-04T01:55:28.912Z,11.75
2016-10-04T01:56:29.012Z,11.64
2016-10-04T01:57:29.065Z,11.76
2016-10-04T01:58:29.046Z,11.68
2016-10-04T01:59:29.042Z,11.73
2016-10-04T02:00:29.018Z,11.73
2016-10-04T02:01:29.098Z,11.85
2016-10-04T02:02:29.118Z,11.67
2016-10-04T02:03:28.984Z,11.81
2016-10-04T02:04:29.088Z,11.79
2016-10-04T02:05:28.976Z,11.76
2016-10-04T02:06:29.051Z,11.75
2016-10-04T02:07:29.019Z,11.81
2016-10-04T02:08:29.104Z,11.73
2016-10-04T02:09:29.064Z,11.79
2016-10-04T02:10:29.045Z,11.82
2016-10-04T02:11:29.078Z,11.86
2016-10-04T02:12:29.105Z,11.79
2016-10-04T02:13:29.082Z,11.82
2016-10-04T02:14:29.083Z,11.76
2016-10-04T02:15:29.039Z,11.75
2016-10-04T02:16:29.034Z,11.79
2016-10-04T02:17:29.160Z,11.82
2016-10-04T02:18:29.148Z,11.86
2016-10-04T02:19:29.131Z,11.76
2016-10-04T02:20:29.042Z,11.79
2016-10-04T02:21:29.128Z,11.81
2016-10-04T02:22:29.146Z,11.86
2016-10-04T02:23:29.107Z,11.79
2016-10-04T02:24:29.067Z,11.76
2016-10-04T02:25:29.152Z,11.82
2016-10-04T02:26:29.015Z,11.81
2016-10-04T02:27:29.100Z,11.84
2016-10-04T02:28:29.138Z,11.78
2016-10-04T02:29:29.047Z,11.86
2016-10-04T02:30:29.148Z,11.82
2016-10-04T02:31:29.116Z,11.79
2016-10-04T02:32:29.171Z,11.82
2016-10-04T02:33:29.041Z,11.82
2016-10-04T02:34:29.127Z,11.76
2016-10-04T02:35:29.097Z,11.86
2016-10-04T02:36:29.130Z,11.79
2016-10-04T02:37:29.153Z,11.7
2016-10-04T02:38:29.176Z,11.82
2016-10-04T02:39:29.102Z,11.76
2016-10-04T02:40:29.103Z,11.71
2016-10-04T02:41:29.110Z,11.79
2016-10-04T02:42:29.155Z,11.73
2016-10-04T02:43:29.154Z,11.73
2016-10-04T02:44:29.155Z,11.76
2016-10-04T02:45:29.126Z,11.73
2016-10-04T02:46:29.159Z,11.7
2016-10-04T02:47:29.134Z,11.73
2016-10-04T02:48:29.224Z,11.75
2016-10-04T02:49:29.127Z,11.71
2016-10-04T02:50:29.166Z,11.73
2016-10-04T02:51:29.240Z,11.71
2016-10-04T02:52:29.205Z,11.7
2016-10-04T02:53:29.139Z,11.73
2016-10-04T02:54:29.071Z,11.7
2016-10-04T02:55:29.185Z,11.73
2016-10-04T02:56:29.146Z,11.7
2016-10-04T02:57:29.145Z,11.67
2016-10-04T02:58:29.227Z,11.68
2016-10-04T02:59:29.203Z,11.64
2016-10-04T03:00:29.152Z,11.68
2016-10-04T03:01:29.155Z,11.71
2016-10-04T03:02:29.161Z,11.75
2016-10-04T03:03:29.258Z,11.68
2016-10-04T03:04:29.238Z,11.7
2016-10-04T03:05:29.217Z,11.68
2016-10-04T03:06:29.268Z,11.75
2016-10-04T03:07:29.213Z,11.73
2016-10-04T03:08:29.140Z,11.68
2016-10-04T03:09:29.238Z,11.76
2016-10-04T03:10:29.222Z,11.68
2016-10-04T03:11:29.281Z,11.75
2016-10-04T03:12:29.178Z,11.7
2016-10-04T03:13:29.151Z,11.88
2016-10-04T03:14:29.264Z,11.78
2016-10-04T03:15:29.240Z,11.86
2016-10-04T03:16:29.275Z,11.76
2016-10-04T03:17:29.446Z,11.81
2016-10-04T03:18:29.195Z,11.84
2016-10-04T03:19:29.249Z,11.86
2016-10-04T03:20:29.279Z,11.86
2016-10-04T03:21:29.169Z,11.85
2016-10-04T03:22:29.252Z,11.91
2016-10-04T03:23:29.164Z,11.86
2016-10-04T03:24:29.214Z,11.91
2016-10-04T03:25:29.222Z,11.86
2016-10-04T03:26:29.258Z,11.89
2016-10-04T03:27:29.278Z,11.94
2016-10-04T03:28:29.261Z,11.94
2016-10-04T03:29:29.316Z,11.91
2016-10-04T03:30:29.286Z,11.85
2016-10-04T03:31:29.276Z,11.91
2016-10-04T03:32:29.316Z,11.98
2016-10-04T03:33:29.286Z,12
2016-10-04T03:34:29.212Z,12.05
2016-10-04T03:35:29.247Z,12.05
2016-10-04T03:36:29.266Z,12.04
2016-10-04T03:37:29.183Z,11.98
2016-10-04T03:38:29.335Z,12.07
2016-10-04T03:39:29.343Z,12.04
2016-10-04T03:40:29.336Z,12.01
2016-10-04T03:41:29.300Z,12.01
2016-10-04T03:42:29.362Z,12.05
2016-10-04T03:43:29.338Z,12.03
2016-10-04T03:44:29.244Z,12.03
2016-10-04T03:45:29.356Z,12.07
2016-10-04T03:46:29.357Z,12.1
2016-10-04T03:47:29.223Z,12.04
2016-10-04T03:48:29.330Z,12.04
2016-10-04T03:49:29.666Z,12.08
2016-10-04T03:50:29.403Z,12.04
2016-10-04T03:51:29.376Z,12.05
2016-10-04T03:52:29.291Z,12.11
2016-10-04T03:53:29.294Z,12.1
2016-10-04T03:54:29.352Z,12.11
2016-10-04T03:55:29.402Z,12.05
2016-10-04T03:56:29.300Z,12.01
2016-10-04T03:57:29.386Z,12.03
2016-10-04T03:58:29.281Z,12.11
2016-10-04T03:59:29.319Z,12.16
2016-10-04T04:00:29.381Z,12.13
2016-10-04T04:01:29.401Z,12.22
2016-10-04T04:02:29.326Z,12.2
2016-10-04T04:03:29.343Z,12.2
2016-10-04T04:04:29.419Z,12.23
2016-10-04T04:05:29.386Z,12.19
2016-10-04T04:06:29.308Z,12.2
2016-10-04T04:07:29.422Z,12.25
2016-10-04T04:08:29.274Z,12.15
2016-10-04T04:09:29.426Z,12.28
2016-10-04T04:10:29.297Z,12.22
2016-10-04T04:11:29.403Z,12.18
2016-10-04T04:12:29.384Z,12.2
2016-10-04T04:13:29.358Z,12.16
2016-10-04T04:14:29.358Z,12.23
2016-10-04T04:15:29.460Z,12.25
2016-10-04T04:16:29.344Z,12.25
2016-10-04T04:17:29.449Z,12.19
2016-10-04T04:18:29.392Z,12.2
2016-10-04T04:19:29.295Z,12.22
2016-10-04T04:20:29.410Z,12.18
2016-10-04T04:21:29.409Z,12.23
2016-10-04T04:22:29.411Z,12.16
2016-10-04T04:23:29.422Z,12.16
2016-10-04T04:24:29.471Z,12.2
2016-10-04T04:25:29.412Z,12.16
2016-10-04T04:26:29.518Z,12.19
2016-10-04T04:27:29.401Z,12.19
2016-10-04T04:28:29.353Z,12.11
2016-10-04T04:29:29.437Z,12.19
2016-10-04T04:30:29.413Z,12.07
2016-10-04T04:31:29.421Z,12.16
2016-10-04T04:32:29.487Z,12.16
2016-10-04T04:33:29.437Z,12.13
2016-10-04T04:34:29.507Z,12.05
2016-10-04T04:35:29.536Z,12.18
2016-10-04T04:36:29.464Z,12.2
2016-10-04T04:37:29.416Z,12.22
2016-10-04T04:38:29.516Z,12.18
2016-10-04T04:39:29.403Z,12.04
2016-10-04T04:40:29.525Z,12.13
2016-10-04T04:41:29.400Z,12.08
2016-10-04T04:42:29.795Z,12.07
2016-10-04T04:43:29.505Z,12.03
2016-10-04T04:44:29.458Z,12
2016-10-04T04:45:29.519Z,12.01
2016-10-04T04:46:29.529Z,12.11
2016-10-04T04:47:29.500Z,12.04
2016-10-04T04:48:29.496Z,12.1
2016-10-04T04:49:29.513Z,12.2
2016-10-04T04:50:29.421Z,12.18
2016-10-04T04:51:29.446Z,12.07
2016-10-04T04:52:29.474Z,12.08
2016-10-04T04:53:29.561Z,12.16
2016-10-04T04:54:29.494Z,12.1
2016-10-04T04:55:29.519Z,12.11
2016-10-04T04:56:29.553Z,12.08
2016-10-04T04:57:29.497Z,11.98
2016-10-04T04:58:29.597Z,12.11
2016-10-04T04:59:29.494Z,12.03
2016-10-04T05:00:29.560Z,12.08
2016-10-04T05:01:29.534Z,12
2016-10-04T05:02:29.557Z,12.05
2016-10-04T05:03:29.572Z,12.08
2016-10-04T05:04:29.500Z,12.04
2016-10-04T05:05:29.531Z,12.05
2016-10-04T05:06:29.602Z,12.03
2016-10-04T05:07:29.501Z,11.97
2016-10-04T05:08:29.572Z,11.97
2016-10-04T05:09:29.745Z,12.01
2016-10-04T05:10:29.520Z,12.01
2016-10-04T05:11:29.622Z,12.1
2016-10-04T05:12:29.634Z,12.07
2016-10-04T05:13:29.527Z,12.1
2016-10-04T05:14:29.859Z,12.1
2016-10-04T05:15:29.569Z,12.07
2016-10-04T05:16:29.587Z,12.1
2016-10-04T05:17:29.610Z,12.16
2016-10-04T05:18:29.611Z,12.03
2016-10-04T05:19:29.505Z,12.05
2016-10-04T05:20:29.470Z,12.08
2016-10-04T05:21:29.593Z,12.04
2016-10-04T05:22:29.615Z,12.05
2016-10-04T05:23:29.552Z,12.08
2016-10-04T05:24:29.529Z,12.07
2016-10-04T05:25:29.613Z,12.03
2016-10-04T05:26:29.672Z,12
2016-10-04T05:27:29.628Z,12.11
2016-10-04T05:28:29.619Z,12.18
2016-10-04T05:29:29.575Z,12.13
2016-10-04T05:30:29.624Z,12.16
2016-10-04T05:31:29.581Z,12.03
2016-10-04T05:32:29.614Z,12.03
2016-10-04T05:33:29.668Z,12.04
2016-10-04T05:34:29.516Z,12.03
2016-10-04T05:35:29.616Z,12.04
2016-10-04T05:36:29.533Z,12.1
2016-10-04T05:37:29.637Z,12.08
2016-10-04T05:38:29.544Z,12.15
2016-10-04T05:39:29.683Z,12.16
2016-10-04T05:40:29.673Z,12.1
2016-10-04T05:41:29.609Z,12.13
2016-10-04T05:42:29.613Z,12.13
2016-10-04T05:43:29.644Z,12.15
2016-10-04T05:44:29.642Z,12.22
2016-10-04T05:45:29.693Z,12.16
2016-10-04T05:46:29.663Z,12.04
2016-10-04T05:47:29.660Z,12.16
2016-10-04T05:48:29.628Z,12.13
2016-10-04T05:49:29.718Z,12.1
2016-10-04T05:50:29.639Z,12.2
2016-10-04T05:51:29.607Z,12.26
2016-10-04T05:52:29.643Z,12.2
2016-10-04T05:53:29.617Z,12.13
2016-10-04T05:54:29.618Z,12.15
2016-10-04T05:55:29.618Z,12.15
2016-10-04T05:56:29.717Z,12.19
2016-10-04T05:57:29.751Z,12.13
2016-10-04T05:58:29.740Z,12.11
2016-10-04T05:59:29.726Z,12.07
2016-10-04T06:00:29.739Z,12.11
2016-10-04T06:01:29.794Z,12.11
2016-10-04T06:02:29.727Z,12.05
2016-10-04T06:03:29.754Z,11.98
2016-10-04T06:04:29.678Z,11.95
2016-10-04T06:05:29.627Z,12.04
2016-10-04T06:06:29.762Z,11.97
2016-10-04T06:07:29.733Z,12.01
2016-10-04T06:08:29.682Z,12
2016-10-04T06:09:29.796Z,11.86
2016-10-04T06:10:29.687Z,11.91
2016-10-04T06:11:29.736Z,11.94
2016-10-04T06:12:29.683Z,11.88
2016-10-04T06:13:29.805Z,11.97
2016-10-04T06:14:29.689Z,11.94
2016-10-04T06:15:29.742Z,11.98
2016-10-04T06:16:29.745Z,11.88
2016-10-04T06:17:29.745Z,12.01
2016-10-04T06:18:29.812Z,11.86
2016-10-04T06:19:29.740Z,12.04
2016-10-04T06:20:29.700Z,11.97
2016-10-04T06:21:29.718Z,11.94
2016-10-04T06:22:29.828Z,11.91
2016-10-04T06:23:30.565Z,12.03
2016-10-04T06:24:29.826Z,12.01
2016-10-04T06:25:29.733Z,12.05
2016-10-04T06:26:29.805Z,12.01
2016-10-04T06:27:29.777Z,12.05
2016-10-04T06:28:29.819Z,12.03
2016-10-04T06:29:29.817Z,12.04
2016-10-04T06:30:29.746Z,12.11
2016-10-04T06:31:29.792Z,12.15
2016-10-04T06:32:29.819Z,12.2
2016-10-04T06:33:29.828Z,12.23
2016-10-04T06:34:30.108Z,12.28
2016-10-04T06:35:29.816Z,12.2
2016-10-04T06:36:29.806Z,12.28
2016-10-04T06:37:29.839Z,12.18
2016-10-04T06:38:29.751Z,12.28
2016-10-04T06:39:29.983Z,12.37
2016-10-04T06:40:29.842Z,12.36
2016-10-04T06:41:29.731Z,12.43
2016-10-04T06:42:29.777Z,12.47
2016-10-04T06:43:29.860Z,12.47
2016-10-04T06:44:29.708Z,12.53
2016-10-04T06:45:29.782Z,12.45
2016-10-04T06:46:29.862Z,12.58
2016-10-04T06:47:29.798Z,12.53
2016-10-04T06:48:29.849Z,12.47
2016-10-04T06:49:29.795Z,12.41
2016-10-04T06:50:29.927Z,12.47
2016-10-04T06:51:29.742Z,12.58
2016-10-04T06:52:29.882Z,12.58
2016-10-04T06:53:29.887Z,12.59
2016-10-04T06:54:29.874Z,12.61
2016-10-04T06:55:29.952Z,12.65
2016-10-04T06:56:29.821Z,12.62
2016-10-04T06:57:29.922Z,12.63
2016-10-04T06:58:29.816Z,12.73
2016-10-04T06:59:29.863Z,12.71
2016-10-04T07:00:29.920Z,12.62
2016-10-04T07:01:29.927Z,12.61
2016-10-04T07:02:29.868Z,12.59
2016-10-04T07:03:29.755Z,12.62
2016-10-04T07:04:29.913Z,12.66
2016-10-04T07:05:29.838Z,12.59
2016-10-04T07:06:29.923Z,12.66
2016-10-04T07:07:29.765Z,12.63
2016-10-04T07:08:29.930Z,12.73
2016-10-04T07:09:29.865Z,12.73
2016-10-04T07:10:29.853Z,12.74
2016-10-04T07:11:30.020Z,12.8
2016-10-04T07:12:29.833Z,12.76
2016-10-04T07:13:29.840Z,12.86
2016-10-04T07:14:29.942Z,12.98
2016-10-04T07:15:29.914Z,12.98
2016-10-04T07:16:29.966Z,12.98
2016-10-04T07:17:29.933Z,13.02
2016-10-04T07:18:29.953Z,12.98
2016-10-04T07:19:29.917Z,13.09
2016-10-04T07:20:29.937Z,13.07
2016-10-04T07:21:29.858Z,13.11
2016-10-04T07:22:29.929Z,13.21
2016-10-04T07:23:29.941Z,13.4
2016-10-04T07:24:30.004Z,13.58
2016-10-04T07:25:29.825Z,13.76
2016-10-04T07:26:29.953Z,13.84
2016-10-04T07:27:30.287Z,14.13
2016-10-04T07:28:31.362Z,14.39
2016-10-04T07:29:30.038Z,14.42
2016-10-04T07:30:29.845Z,14.63
2016-10-04T07:31:29.950Z,14.7
2016-10-04T07:32:29.857Z,14.87
2016-10-04T07:33:29.941Z,15.04
2016-10-04T07:34:29.953Z,15.08
2016-10-04T07:35:29.896Z,15.2
2016-10-04T07:36:30.706Z,15.23
2016-10-04T07:37:29.894Z,15.13
2016-10-04T07:38:30.039Z,15.2
2016-10-04T07:39:29.956Z,15.19
2016-10-04T07:40:30.038Z,15.41
2016-10-04T07:41:31.096Z,15.6
2016-10-04T07:42:29.914Z,15.91
2016-10-04T07:43:30.400Z,16
2016-10-04T07:44:30.140Z,15.86
2016-10-04T07:45:29.999Z,15.95
2016-10-04T07:46:30.051Z,15.86
2016-10-04T07:47:30.067Z,15.93
2016-10-04T07:48:30.057Z,15.75
2016-10-04T07:49:30.196Z,15.8
2016-10-04T07:50:29.980Z,15.95
2016-10-04T07:51:30.059Z,16.26
2016-10-04T07:52:30.059Z,16.21
2016-10-04T07:53:30.096Z,16.16
2016-10-04T07:54:30.119Z,16.27
2016-10-04T07:55:30.701Z,16.42
2016-10-04T07:56:30.120Z,16.26
2016-10-04T07:57:30.057Z,16.1
2016-10-04T07:58:30.056Z,16.08
2016-10-04T07:59:30.401Z,16.29
2016-10-04T08:00:30.098Z,16.37
2016-10-04T08:01:30.094Z,16.44
2016-10-04T08:02:29.978Z,16.54
2016-10-04T08:03:30.024Z,16.73
2016-10-04T08:04:30.235Z,16.88
2016-10-04T08:05:30.026Z,16.92
2016-10-04T08:06:30.117Z,16.8
2016-10-04T08:07:30.111Z,16.76
2016-10-04T08:08:30.059Z,16.4
2016-10-04T08:09:30.116Z,16.21
2016-10-04T08:10:30.134Z,16.22
2016-10-04T08:11:30.026Z,16.27
2016-10-04T08:12:29.985Z,16.57
2016-10-04T08:13:30.044Z,16.16
2016-10-04T08:14:30.060Z,16.25
2016-10-04T08:15:30.484Z,16.48
2016-10-04T08:16:30.068Z,16.74
2016-10-04T08:17:30.148Z,16.33
2016-10-04T08:18:30.090Z,16.58
2016-10-04T08:19:30.154Z,17
2016-10-04T08:20:30.076Z,17.15
2016-10-04T08:21:30.012Z,16.95
2016-10-04T08:22:30.121Z,16.95
2016-10-04T08:23:30.077Z,16.42
2016-10-04T08:24:30.113Z,16.17
2016-10-04T08:25:30.124Z,16.36
2016-10-04T08:26:30.237Z,16.45
2016-10-04T08:27:30.162Z,16.39
2016-10-04T08:28:30.138Z,16.54
2016-10-04T08:29:30.185Z,16.52
2016-10-04T08:30:30.079Z,16.74
2016-10-04T08:31:30.229Z,16.72
2016-10-04T08:32:30.021Z,16.8
2016-10-04T08:33:30.151Z,16.82
2016-10-04T08:34:30.189Z,16.72
2016-10-04T08:35:30.054Z,16.77
2016-10-04T08:36:30.113Z,16.67
2016-10-04T08:37:30.188Z,16.52
2016-10-04T08:38:30.151Z,16.88
2016-10-04T08:39:30.119Z,16.76
2016-10-04T08:40:30.130Z,16.8
2016-10-04T08:41:30.242Z,16.77
2016-10-04T08:42:30.513Z,16.8
2016-10-04T08:43:30.220Z,16.88
2016-10-04T08:44:30.721Z,16.88
2016-10-04T08:45:30.342Z,17
2016-10-04T08:46:30.259Z,17.13
2016-10-04T08:47:30.359Z,16.7
2016-10-04T08:48:30.245Z,16.34
2016-10-04T08:49:30.109Z,16.47
2016-10-04T08:50:30.241Z,16.76
2016-10-04T08:51:30.219Z,17.02
2016-10-04T08:52:30.096Z,17.17
2016-10-04T08:53:30.164Z,17.15
2016-10-04T08:54:30.217Z,16.91
2016-10-04T08:55:30.247Z,16.88
2016-10-04T08:56:30.206Z,17.07
2016-10-04T08:57:30.137Z,16.65
2016-10-04T08:58:30.565Z,16.58
2016-10-04T08:59:30.188Z,16.36
2016-10-04T09:00:30.173Z,16.54
2016-10-04T09:01:30.192Z,16.65
2016-10-04T09:02:30.242Z,16.97
2016-10-04T09:03:30.650Z,17.3
2016-10-04T09:04:30.236Z,17.46
2016-10-04T09:05:30.202Z,17.73
2016-10-04T09:06:30.291Z,17.9
2016-10-04T09:07:30.321Z,17.99
2016-10-04T09:08:30.355Z,17.46
2016-10-04T09:09:30.285Z,17.94
2016-10-04T09:10:30.325Z,18.26
2016-10-04T09:11:30.201Z,17.99
2016-10-04T09:12:30.298Z,17.73
2016-10-04T09:13:30.322Z,17.84
2016-10-04T09:14:30.299Z,18.27
2016-10-04T09:15:30.281Z,18.02
2016-10-04T09:16:30.233Z,17.46
2016-10-04T09:17:30.222Z,17.49
2016-10-04T09:18:30.322Z,17.49
2016-10-04T09:19:30.523Z,17.52
2016-10-04T09:20:30.308Z,17.99
2016-10-04T09:21:30.310Z,17.74
2016-10-04T09:22:30.516Z,17.77
2016-10-04T09:23:30.215Z,17.65
2016-10-04T09:24:30.384Z,17.57
2016-10-04T09:25:30.260Z,17.9
2016-10-04T09:26:30.526Z,18.21
2016-10-04T09:27:30.186Z,18.34
2016-10-04T09:28:30.309Z,18.54
2016-10-04T09:29:30.295Z,18.99
2016-10-04T09:30:30.306Z,19
2016-10-04T09:31:30.255Z,19.31
2016-10-04T09:32:30.257Z,19.4
2016-10-04T09:33:30.231Z,19.23
2016-10-04T09:34:30.286Z,19.17
2016-10-04T09:35:30.570Z,19.46
2016-10-04T09:36:30.314Z,19.42
2016-10-04T09:37:30.413Z,19.5
2016-10-04T09:38:30.337Z,19.27
2016-10-04T09:39:30.445Z,19.47
2016-10-04T09:40:30.557Z,19.37
2016-10-04T09:41:30.417Z,19.4
2016-10-04T09:42:30.612Z,19.56
2016-10-04T09:43:30.363Z,19.61
2016-10-04T09:44:30.385Z,19.78
2016-10-04T09:45:30.445Z,20.12
2016-10-04T09:46:30.284Z,20.25
2016-10-04T09:47:30.420Z,20.16
2016-10-04T09:48:30.361Z,18.9
2016-10-04T09:49:30.344Z,19.09
2016-10-04T09:50:30.462Z,19.12
2016-10-04T09:51:30.441Z,18.81
2016-10-04T09:52:30.428Z,18.81
2016-10-04T09:53:30.517Z,18.78
2016-10-04T09:54:30.553Z,18.26
2016-10-04T09:55:30.521Z,18.44
2016-10-04T09:56:30.465Z,18.02
2016-10-04T09:57:30.371Z,18.23
2016-10-04T09:58:30.350Z,18.44
2016-10-04T09:59:30.357Z,18.53
2016-10-04T10:00:30.523Z,18.53
2016-10-04T10:01:30.337Z,18.42
2016-10-04T10:02:30.767Z,17.58
2016-10-04T10:03:30.313Z,17.98
2016-10-04T10:04:30.475Z,18.27
2016-10-04T10:05:30.398Z,18.2
2016-10-04T10:06:30.477Z,17.77
2016-10-04T10:07:30.429Z,18.14
2016-10-04T10:08:30.450Z,18.78
2016-10-04T10:09:30.395Z,19.4
2016-10-04T10:10:30.434Z,19.43
2016-10-04T10:11:30.468Z,19.53
2016-10-04T10:12:30.515Z,19.74
2016-10-04T10:13:30.360Z,19.6
2016-10-04T10:14:30.528Z,19.75
2016-10-04T10:15:30.438Z,19.45
2016-10-04T10:16:30.592Z,19.53
2016-10-04T10:17:30.460Z,20.04
2016-10-04T10:18:30.708Z,20.04
2016-10-04T10:19:30.342Z,20.22
2016-10-04T10:20:30.454Z,20.4
2016-10-04T10:21:30.339Z,20.41
2016-10-04T10:22:30.549Z,19.83
2016-10-04T10:23:30.698Z,18.99
2016-10-04T10:24:30.435Z,19.46
2016-10-04T10:25:30.519Z,19.72
2016-10-04T10:26:30.481Z,19.6
2016-10-04T10:27:30.484Z,19.61
2016-10-04T10:28:30.469Z,19.75
2016-10-04T10:29:30.469Z,20.54
2016-10-04T10:30:30.501Z,20.6
2016-10-04T10:31:30.518Z,20.6
2016-10-04T10:32:30.486Z,20.37
2016-10-04T10:33:30.454Z,20.26
2016-10-04T10:34:30.524Z,20.3
2016-10-04T10:35:30.481Z,20.16
2016-10-04T10:36:30.509Z,19.64
2016-10-04T10:37:30.490Z,19.07
2016-10-04T10:38:30.473Z,18.27
2016-10-04T10:39:30.805Z,17.77
2016-10-04T10:40:30.436Z,18.53
2016-10-04T10:41:30.570Z,18.47
2016-10-04T10:42:30.627Z,18.26
2016-10-04T10:43:30.434Z,18.53
2016-10-04T10:44:30.616Z,19.05
2016-10-04T10:45:30.576Z,18.87
2016-10-04T10:46:30.529Z,19.43
2016-10-04T10:47:30.504Z,19.68
2016-10-04T10:48:30.521Z,19.86
2016-10-04T10:49:30.602Z,20.16
2016-10-04T10:50:30.616Z,20.35
2016-10-04T10:51:30.658Z,20.83
2016-10-04T10:52:30.650Z,21.48
2016-10-04T10:53:30.887Z,21.7
2016-10-04T10:54:30.668Z,22.16
2016-10-04T10:55:30.882Z,21.3
2016-10-04T10:56:30.717Z,21.34
2016-10-04T10:57:30.553Z,20.81
2016-10-04T10:58:30.752Z,20.34
2016-10-04T10:59:30.614Z,20.27
2016-10-04T11:00:30.798Z,20
2016-10-04T11:01:30.577Z,20.16
2016-10-04T11:02:30.580Z,20.27
2016-10-04T11:03:30.700Z,20.58
2016-10-04T11:04:30.618Z,20.51
2016-10-04T11:05:30.602Z,20.93
2016-10-04T11:06:30.881Z,21.15
2016-10-04T11:07:30.763Z,21.52
2016-10-04T11:08:30.661Z,21.43
2016-10-04T11:09:30.654Z,21.55
2016-10-04T11:10:30.624Z,21.48
2016-10-04T11:11:30.879Z,21.31
2016-10-04T11:12:30.637Z,20.66
2016-10-04T11:13:30.614Z,20.16
2016-10-04T11:14:30.698Z,20.49
2016-10-04T11:15:32.407Z,20.07
2016-10-04T11:16:30.795Z,19.72
2016-10-04T11:17:30.520Z,19.64
2016-10-04T11:18:30.553Z,19.56
2016-10-04T11:19:30.665Z,19.63
2016-10-04T11:20:30.829Z,19.52
2016-10-04T11:21:30.876Z,19.87
2016-10-04T11:22:30.758Z,20.11
2016-10-04T11:23:30.723Z,19.65
2016-10-04T11:24:30.696Z,19.74
2016-10-04T11:25:30.750Z,19.56
2016-10-04T11:26:31.467Z,19.23
2016-10-04T11:27:31.014Z,19.6
2016-10-04T11:28:30.733Z,19.93
2016-10-04T11:29:30.625Z,19.97
2016-10-04T11:30:30.850Z,20.4
2016-10-04T11:31:30.765Z,20.37
2016-10-04T11:32:30.657Z,20.81
2016-10-04T11:33:30.837Z,21.18
2016-10-04T11:34:30.725Z,21.21
2016-10-04T11:35:30.748Z,21.9
2016-10-04T11:36:30.698Z,22.16
2016-10-04T11:37:30.746Z,22.14
2016-10-04T11:38:30.722Z,21.83
2016-10-04T11:39:30.650Z,21.86
2016-10-04T11:40:30.585Z,21.16
2016-10-04T11:41:30.712Z,21.41
2016-10-04T11:42:30.773Z,21.27
2016-10-04T11:43:30.830Z,21.41
2016-10-04T11:44:30.848Z,21.86
2016-10-04T11:45:30.834Z,22.15
2016-10-04T11:46:30.853Z,22.52
2016-10-04T11:47:30.770Z,22.69
2016-10-04T11:48:30.746Z,22.92
2016-10-04T11:49:30.879Z,22.51
2016-10-04T11:50:30.622Z,22.11
2016-10-04T11:51:30.656Z,22.04
2016-10-04T11:52:30.833Z,22
2016-10-04T11:53:30.768Z,22.3
2016-10-04T11:54:30.799Z,22.31
2016-10-04T11:55:30.817Z,22.33
2016-10-04T11:56:30.670Z,22.08
2016-10-04T11:57:30.749Z,21.4
2016-10-04T11:58:30.786Z,21.21
2016-10-04T11:59:31.218Z,21.22
2016-10-04T12:00:30.764Z,20.67
2016-10-04T12:01:30.675Z,20.01
2016-10-04T12:02:30.843Z,20.02
2016-10-04T12:03:30.822Z,19.86
2016-10-04T12:04:30.820Z,20.12
2016-10-04T12:05:30.821Z,20.72
2016-10-04T12:06:30.939Z,21.23
2016-10-04T12:07:30.828Z,21.67
2016-10-04T12:08:30.751Z,21.23
2016-10-04T12:09:30.852Z,21.73
2016-10-04T12:10:30.855Z,22.11
2016-10-04T12:11:30.835Z,22.18
2016-10-04T12:12:30.785Z,22.18
2016-10-04T12:13:30.760Z,20.76
2016-10-04T12:14:30.881Z,20.76
2016-10-04T12:15:31.346Z,20.58
2016-10-04T12:16:30.954Z,20.08
2016-10-04T12:17:30.842Z,19.85
2016-10-04T12:18:30.726Z,19.45
2016-10-04T12:19:30.849Z,19.16
2016-10-04T12:20:30.838Z,19.56
2016-10-04T12:21:31.461Z,19.63
2016-10-04T12:22:30.872Z,19.9
2016-10-04T12:23:30.857Z,19.98
2016-10-04T12:24:30.886Z,20.2
2016-10-04T12:25:30.931Z,20.16
2016-10-04T12:26:31.759Z,20.58
2016-10-04T12:27:30.767Z,20.2
2016-10-04T12:28:30.910Z,20.34
2016-10-04T12:29:30.796Z,20.9
2016-10-04T12:30:30.987Z,20.91
2016-10-04T12:31:31.022Z,21.4
2016-10-04T12:32:30.827Z,21.99
2016-10-04T12:33:30.890Z,21.86
2016-10-04T12:34:30.937Z,21.51
2016-10-04T12:35:30.853Z,21.28
2016-10-04T12:36:30.734Z,21.36
2016-10-04T12:37:30.861Z,21.36
2016-10-04T12:38:30.824Z,21.49
2016-10-04T12:39:30.831Z,21.49
2016-10-04T12:40:30.875Z,21.55
2016-10-04T12:41:30.926Z,21.55
2016-10-04T12:42:31.148Z,21.34
2016-10-04T12:43:31.081Z,21.51
2016-10-04T12:44:30.953Z,21.49
2016-10-04T12:45:30.903Z,21.3
2016-10-04T12:46:31.045Z,21.64
2016-10-04T12:47:30.972Z,21.45
2016-10-04T12:48:31.021Z,21.21
2016-10-04T12:49:30.850Z,21.27
2016-10-04T12:50:30.967Z,20.56
2016-10-04T12:51:30.884Z,19.93
2016-10-04T12:52:30.855Z,20.37
2016-10-04T12:53:30.949Z,20.76
2016-10-04T12:54:30.962Z,20.76
2016-10-04T12:55:30.963Z,20.79
2016-10-04T12:56:30.873Z,21.04